^^

Meteo Aereoporti Centro-Italia

 

 
LIRZ - Perugia S.Egidio (208 m.)
Dati ricevuti: 06/04/2020 23:50
Sereno
Sereno
 Vento da NNW
Vento: NNW 15 km/h
TEMPERATURA: 9°C
Raffreddamento da Vento: 7°C
P.to di Rugiada: 2°C
Umidità: 62%
Pressione: 1026 hPa
Nuvole: Sereno
Visibilità: 10 km
2020/04/06 21:50 LIRZ 062150Z AUTO 34008KT 9999 NCD 09/02 Q1026
 
LIPY - Ancona Falconara (12 m.)
Dati ricevuti: 06/04/2020 23:50
Sereno
Sereno
 Vento da S
Vento: S 6 km/h
TEMPERATURA: 7°C
P.to di Rugiada: 4°C
Umidità: 81%
Pressione: 1027 hPa
Condizioni generali: Sereno
Visibilità: oltre 10 km
2020/04/06 21:50 LIPY 062150Z 18003KT CAVOK 07/04 Q1027
 
LIPR - Rimini Miramare (12 m.)
Dati ricevuti: 06/04/2020 23:50
Sereno
Sereno
 Vento da S
Vento: S 6 km/h
TEMPERATURA: 8°C
P.to di Rugiada: 2°C
Umidità: 66%
Pressione: 1027 hPa
Nuvole: Sereno
Visibilità: 10 km
2020/04/06 21:50 LIPR 062150Z AUTO 19003KT 9999 NCD 08/02 Q1027
 
LIRF - Roma Fiumicino (2 m.)
Dati ricevuti: 06/04/2020 23:50
Sereno
Sereno
 Vento da E
Vento: E 6 km/h
TEMPERATURA: 10°C
P.to di Rugiada: 7°C
Umidità: 82%
Pressione: 1026 hPa
Condizioni generali: Sereno
Visibilità: oltre 10 km
2020/04/06 21:50 LIRF 062150Z 10003KT CAVOK 10/07 Q1026 NOSIG
 
LIRA - Roma Ciampino (129 m.)
Dati ricevuti: 06/04/2020 22:50
Dati non aggiornati
Sereno
Sereno
 Vento da S
Vento: S 6 km/h
TEMPERATURA: 14°C
P.to di Rugiada: 3°C
Umidità: 48%
Pressione: 1026 hPa
Condizioni generali: Sereno
Visibilità: oltre 10 km
2020/04/06 20:50 LIRA 062050Z 18003KT 140V200 CAVOK 14/03 Q1026
 
LIRU - Roma Urbe (17 m.)
Dati ricevuti: 06/04/2020 19:50
Dati non aggiornati
Sereno
Sereno
 Vento da W
Vento: W 7 km/h
TEMPERATURA: 16°C
P.to di Rugiada: 3°C
Umidità: 42%
Pressione: 1024 hPa
Condizioni generali: Sereno
Visibilità: oltre 10 km
2020/04/06 17:50 LIRU 061750Z 26004KT CAVOK 16/03 Q1024
 
LIVF - Frontone (570 m.)
Dati ricevuti: 06/04/2020 11:55
Dati non aggiornati
Sereno
Sereno
 Vento da ESE
Vento: ESE 6 km/h
TEMPERATURA: 13°C
P.to di Rugiada: 1°C
Umidità: 44%
Pressione: 1023 hPa
Condizioni generali: Sereno
Visibilità: oltre 10 km
2020/04/06 09:55 LIVF 060955Z 11003KT CAVOK 13/01 Q1023
 
LIRQ - Firenze Peretola (40 m.)
Dati ricevuti: 06/04/2020 23:50
Sereno
Sereno
 Vento da direzione variabile
Vento: direzione variabile 4 km/h
TEMPERATURA: 12°C
P.to di Rugiada: 2°C
Umidità: 51%
Pressione: 1026 hPa
Condizioni generali: Sereno
Visibilità: oltre 10 km
2020/04/06 21:50 LIRQ 062150Z VRB02KT CAVOK 12/02 Q1026
 
LIBP - Pescara (10 m.)
Dati ricevuti: 06/04/2020 23:50
Sereno
Sereno
 Vento da SW
Vento: SW 9 km/h
TEMPERATURA: 8°C
Raffreddamento da Vento: 6°C
P.to di Rugiada: 6°C
Umidità: 87%
Pressione: 1027 hPa
Nuvole: Sereno
Visibilità: 9 km
2020/04/06 21:50 LIBP 062150Z AUTO 22005KT 9000 NCD 08/06 Q1027
 
LIRV - Viterbo (300 m.)
Dati ricevuti: 06/04/2020 19:55
Dati non aggiornati
Sereno
Sereno
 Vento da SW
Vento: SW 15 km/h
TEMPERATURA: 14°C
P.to di Rugiada: 6°C
Umidità: 59%
Pressione: 1023 hPa
Condizioni generali: Sereno
Visibilità: oltre 10 km
2020/04/06 17:55 LIRV 061755Z 23008KT CAVOK 14/06 Q1023
 
LIQN - Rieti (389 m.)
Dati ricevuti: 06/04/2020 19:50
Dati non aggiornati
Sereno
Sereno
 Vento da SSE
Vento: SSE 11 km/h
TEMPERATURA: 15°C
P.to di Rugiada: 3°C
Umidità: 45%
Pressione: 1023 hPa
Condizioni generali: Sereno
Visibilità: oltre 10 km
2020/04/06 17:50 LIQN 061750Z 15006KT 130V190 CAVOK 15/03 Q1023
 
LIRG - Guidonia -RM- (88 m.)
Dati ricevuti: 06/04/2020 19:55
Dati non aggiornati
Sereno
Sereno
 Vento da WSW
Vento: WSW 9 km/h
TEMPERATURA: 15°C
P.to di Rugiada: 4°C
Umidità: 48%
Pressione: 1025 hPa
Condizioni generali: Sereno
Visibilità: oltre 10 km
2020/04/06 17:55 LIRG 061755Z 24005KT CAVOK 15/04 Q1025
 
LIRK - Terminillo -RI-(1874 m.)
Dati ricevuti: 06/04/2020 23:55

 Vento da direzione variabile
Vento: direzione variabile 11 km/h
TEMPERATURA: 3°C
Raffreddamento da Vento: 0°C
P.to di Rugiada: -4°C
Umidità: 60%
Pressione: 1027 hPa
2020/04/06 21:55 LIRK 062155Z AUTO VRB06KT //// 03/M04 Q1027
 
LIPK - Forlì (27 m.)
Dati ricevuti: 10/03/2020 17:50
Dati non aggiornati
Sereno
Sereno
 Vento da ENE
Vento: ENE 11 km/h
TEMPERATURA: 14°C
P.to di Rugiada: 4°C
Umidità: 51%
Pressione: 1016 hPa
Condizioni generali: Sereno
Visibilità: oltre 10 km
2020/03/10 16:50 LIPK 101650Z 07006KT CAVOK 14/04 Q1016
 
LIRS - Grosseto (5 m.)
Dati ricevuti: 06/04/2020 23:55
Sereno
Sereno
 Vento da direzione variabile
Vento: direzione variabile 2 km/h
TEMPERATURA: 10°C
P.to di Rugiada: 7°C
Umidità: 82%
Pressione: 1025 hPa
Condizioni generali: Sereno
Visibilità: oltre 10 km
2020/04/06 21:55 LIRS 062155Z VRB01KT CAVOK 10/07 Q1025
 
LIRP - Pisa S.Giusto (2 m.)
Dati ricevuti: 06/04/2020 23:45
Sereno
Sereno
 Vento da ESE
Vento: ESE 6 km/h
TEMPERATURA: 11°C
P.to di Rugiada: 4°C
Umidità: 62%
Pressione: 1025 hPa
Condizioni generali: Sereno
Visibilità: oltre 10 km
2020/04/06 21:45 LIRP 062145Z 12003KT CAVOK 11/04 Q1025 NOSIG